Vindmåler ude af drift - anemometer is down due to maintenance


Webcam more information My webcam


Lyn radar more information blitzortung!


Regn radar more information rain snow radar


Du finder også vores vejrinformationer på:

UK Metoffice

European Weather Network

WeatherCloud

Weather Underground

AWEKAS

Citizen Weather Observer Program (CWOP)



No particular awareness of the weather is required.    There are no Weather-warnings

Lokal METAR Rapport

   
EBAW - Antwerp
Opdateret: 15-07-2019 22:20
mest skyet  
mest skyet  
   Vind: Nord 2.1 m/s
Vind: Nord 2.1 m/s
Temperatur: 15°C
Dugpunkt: 12°C
Luftfugtighed: 82%
Barometer: 1020 hPa
Skyet: Mostly Cloudy
Sigtbarhed: mere end 10 km
Sky detaljer: mest skyet 3600 ft
EBAW 152020Z 01004KT 330V040 9999 BKN036 15/12 Q1020 NOSIG
EBLG - Liège
Opdateret: 15-07-2019 22:20
mest skyet  
mest skyet  
   Vind: Nord 1.5 m/s
Vind: Nord 1.5 m/s
Temperatur: 15°C
Dugpunkt: 10°C
Luftfugtighed: 72%
Barometer: 1020 hPa
Skyet: Mostly Cloudy
Sigtbarhed: mere end 10 km
Sky detaljer: mest skyet 3000 ft
EBLG 152020Z 35003KT 300V010 9999 BKN030 15/10 Q1020 NOSIG
EBCV - Mons/Bergen
Opdateret: 15-07-2019 22:25
Overskyet  
Overskyet  
   Vind: Nord 2.6 m/s
Vind: Nord 2.6 m/s
Temperatur: 15°C
Dugpunkt: 11°C
Luftfugtighed: 77%
Barometer: 1021 hPa
Skyet: Overcast
Sigtbarhed: mere end 10 km
Sky detaljer: Overskyet 3000 ft
EBCV 152025Z AUTO 36005KT 9999 OVC030/// 15/11 Q1021 BLU
EHBK - Maastricht
Opdateret: 15-07-2019 22:25
Overskyet  
Overskyet  
   Vind: NV 1.5 m/s
Vind: NV 1.5 m/s
Temperatur: 16°C
Dugpunkt: 11°C
Luftfugtighed: 72%
Barometer: 1020 hPa
Skyet: Overcast
Sigtbarhed: mere end 10 km
Sky detaljer: Overskyet 3500 ft
EHBK 152025Z AUTO 31003KT 250V340 9999 OVC035 16/11 Q1020 NOSIG
ELLX - Luxemburg
Opdateret: 15-07-2019 22:20
Klart  
Klart  
   Vind: Nord 5.1 m/s
Vind: Nord 5.1 m/s
Temperatur: 14°C
Dugpunkt: 10°C
Luftfugtighed: 77%
Barometer: 1019 hPa
Sigtbarhed: mere end 10 km
Sky detaljer: Klart ft
ELLX 152020Z 01010KT CAVOK 14/10 Q1019 NOSIG
EBOS - Oostende
Opdateret: 15-07-2019 22:20
mest skyet  
mest skyet  
   Vind: NNØ 3.1 m/s
Vind: NNØ 3.1 m/s
Temperatur: 15°C
Dugpunkt: 10°C
Luftfugtighed: 72%
Barometer: 1021 hPa
Skyet: Mostly Cloudy
Sigtbarhed: mere end 10 km
Sky detaljer: Let Skyet 1800 ft,
mest skyet 2500 ft
EBOS 152020Z 03006KT 360V060 9999 FEW018 BKN025 15/10 Q1021 NOSIG

Script udviklet af  Saratoga-weather.org Tilpasset til denne template af  Weerstation Leuven

Udstyr som vi anvender:

Vejrstation
Davis VP2

Vejrprogram
Meteobridge

Vejrserver
Meteobridge Pro

Hjemmeside host
Unoeuro

Davis VP2

Meteobridge

Meteobridge Pro

Unoeuro